createdAt,value
2018-12-25T00:01:54.435Z,100.00
2018-12-25T00:04:22.788Z,100.00
2018-12-25T00:06:51.173Z,100.00
2018-12-25T00:09:19.522Z,100.00
2018-12-25T00:11:47.907Z,100.00
2018-12-25T00:14:16.272Z,100.00
2018-12-25T00:16:44.638Z,100.00
2018-12-25T00:19:13.001Z,100.00
2018-12-25T00:21:41.364Z,100.00
2018-12-25T00:24:09.729Z,100.00
2018-12-25T00:26:38.111Z,100.00
2018-12-25T00:29:06.500Z,100.00
2018-12-25T00:31:34.868Z,100.00
2018-12-25T00:34:03.237Z,100.00
2018-12-25T00:36:31.611Z,100.00
2018-12-25T00:41:40.787Z,100.00
2018-12-25T00:44:09.168Z,100.00
2018-12-25T00:46:37.563Z,100.00
2018-12-25T00:49:05.947Z,100.00
2018-12-25T00:51:34.308Z,100.00
2018-12-25T00:54:02.675Z,100.00
2018-12-25T00:56:31.075Z,100.00
2018-12-25T00:58:59.460Z,100.00
2018-12-25T01:01:27.838Z,100.00
2018-12-25T01:03:56.188Z,100.00
2018-12-25T01:06:24.560Z,100.00
2018-12-25T01:08:52.913Z,100.00
2018-12-25T01:11:21.285Z,100.00
2018-12-25T01:13:49.672Z,100.00
2018-12-25T01:16:18.044Z,100.00
2018-12-25T01:18:46.407Z,100.00
2018-12-25T01:21:15.626Z,100.00
2018-12-25T01:23:43.997Z,100.00
2018-12-25T01:26:12.379Z,100.00
2018-12-25T01:28:40.756Z,100.00
2018-12-25T01:31:09.110Z,100.00
2018-12-25T01:33:37.495Z,100.00
2018-12-25T01:36:05.861Z,100.00
2018-12-25T01:38:34.233Z,100.00
2018-12-25T01:41:02.591Z,100.00
2018-12-25T01:43:30.999Z,100.00
2018-12-25T01:45:59.361Z,100.00
2018-12-25T01:48:27.734Z,100.00
2018-12-25T01:50:56.109Z,100.00
2018-12-25T01:53:24.461Z,100.00
2018-12-25T01:55:52.830Z,100.00
2018-12-25T01:58:21.204Z,100.00
2018-12-25T02:00:49.572Z,100.00
2018-12-25T02:03:17.943Z,100.00
2018-12-25T02:05:46.310Z,100.00
2018-12-25T02:08:14.678Z,100.00
2018-12-25T02:10:43.059Z,100.00
2018-12-25T02:13:11.422Z,100.00
2018-12-25T02:15:39.778Z,100.00
2018-12-25T02:18:08.149Z,100.00
2018-12-25T02:20:36.514Z,100.00
2018-12-25T02:23:04.873Z,100.00
2018-12-25T02:25:33.240Z,100.00
2018-12-25T02:28:01.602Z,100.00
2018-12-25T02:30:29.962Z,100.00
2018-12-25T02:32:58.316Z,100.00
2018-12-25T02:35:26.709Z,100.00
2018-12-25T02:37:55.084Z,100.00
2018-12-25T02:40:23.450Z,100.00
2018-12-25T02:42:51.842Z,100.00
2018-12-25T02:45:20.249Z,100.00
2018-12-25T02:47:49.655Z,100.00
2018-12-25T02:50:18.021Z,100.00
2018-12-25T02:52:46.417Z,100.00
2018-12-25T02:55:14.776Z,100.00
2018-12-25T02:57:43.125Z,100.00
2018-12-25T03:00:11.504Z,100.00
2018-12-25T03:02:39.864Z,100.00
2018-12-25T03:05:08.221Z,100.00
2018-12-25T03:07:36.569Z,100.00
2018-12-25T03:10:44.980Z,100.00
2018-12-25T03:13:13.345Z,100.00
2018-12-25T03:15:41.707Z,100.00
2018-12-25T03:18:10.094Z,100.00
2018-12-25T03:20:38.464Z,100.00
2018-12-25T03:23:06.824Z,100.00
2018-12-25T03:25:35.199Z,100.00
2018-12-25T03:28:03.546Z,100.00
2018-12-25T03:30:31.921Z,100.00
2018-12-25T03:33:00.282Z,100.00
2018-12-25T03:35:28.657Z,100.00
2018-12-25T03:37:57.045Z,100.00
2018-12-25T03:40:25.406Z,100.00
2018-12-25T03:42:53.786Z,100.00
2018-12-25T03:45:22.144Z,100.00
2018-12-25T03:47:50.530Z,100.00
2018-12-25T03:50:18.894Z,100.00
2018-12-25T03:52:47.298Z,100.00
2018-12-25T03:55:15.658Z,100.00
2018-12-25T03:57:44.032Z,100.00
2018-12-25T04:00:12.389Z,100.00
2018-12-25T04:02:40.757Z,100.00
2018-12-25T04:05:09.130Z,100.00
2018-12-25T04:07:38.541Z,100.00
2018-12-25T04:10:06.921Z,100.00
2018-12-25T04:12:35.299Z,100.00
2018-12-25T04:15:15.363Z,100.00
2018-12-25T04:17:43.721Z,100.00
2018-12-25T04:20:19.674Z,100.00
2018-12-25T04:22:42.208Z,100.00
2018-12-25T04:25:10.575Z,100.00
2018-12-25T04:27:38.953Z,100.00
2018-12-25T04:30:07.336Z,100.00
2018-12-25T04:32:35.699Z,100.00
2018-12-25T04:35:04.219Z,100.00
2018-12-25T04:37:32.578Z,100.00
2018-12-25T04:40:01.048Z,100.00
2018-12-25T04:42:29.396Z,100.00
2018-12-25T04:44:57.783Z,100.00
2018-12-25T04:47:26.232Z,100.00
2018-12-25T04:49:54.592Z,100.00
2018-12-25T04:52:22.958Z,100.00
2018-12-25T04:54:51.330Z,100.00
2018-12-25T04:57:19.710Z,100.00
2018-12-25T04:59:48.081Z,100.00
2018-12-25T05:02:16.451Z,100.00
2018-12-25T05:04:44.799Z,100.00
2018-12-25T05:07:13.157Z,100.00
2018-12-25T05:09:41.522Z,100.00
2018-12-25T05:12:09.889Z,100.00
2018-12-25T05:14:38.281Z,100.00
2018-12-25T05:17:06.638Z,100.00
2018-12-25T05:19:35.004Z,100.00
2018-12-25T05:22:03.503Z,100.00
2018-12-25T05:24:31.830Z,100.00
2018-12-25T05:27:00.210Z,100.00
2018-12-25T05:29:28.571Z,100.00
2018-12-25T05:31:56.932Z,100.00
2018-12-25T05:34:25.297Z,100.00
2018-12-25T05:36:53.672Z,100.00
2018-12-25T05:39:22.058Z,100.00
2018-12-25T05:41:50.419Z,100.00
2018-12-25T05:44:18.780Z,100.00
2018-12-25T05:46:48.137Z,100.00
2018-12-25T05:49:16.502Z,100.00
2018-12-25T05:51:44.877Z,100.00
2018-12-25T05:54:13.252Z,100.00
2018-12-25T05:56:41.629Z,100.00
2018-12-25T05:59:09.988Z,100.00
2018-12-25T06:01:38.350Z,100.00
2018-12-25T06:04:06.730Z,100.00
2018-12-25T06:06:35.100Z,100.00
2018-12-25T06:11:42.418Z,100.00
2018-12-25T06:14:10.792Z,100.00
2018-12-25T06:16:39.152Z,100.00
2018-12-25T06:19:26.874Z,100.00
2018-12-25T06:21:55.241Z,100.00
2018-12-25T06:24:23.605Z,100.00
2018-12-25T06:26:51.976Z,100.00
2018-12-25T06:29:20.342Z,100.00
2018-12-25T06:31:48.708Z,100.00
2018-12-25T06:34:17.081Z,100.00
2018-12-25T06:36:45.455Z,100.00
2018-12-25T06:39:13.802Z,100.00
2018-12-25T06:41:42.193Z,100.00
2018-12-25T06:44:10.573Z,100.00
2018-12-25T06:46:39.035Z,100.00
2018-12-25T06:49:07.394Z,100.00
2018-12-25T06:51:35.775Z,100.00
2018-12-25T06:54:04.145Z,100.00
2018-12-25T06:56:32.499Z,100.00
2018-12-25T06:59:00.889Z,100.00
2018-12-25T07:01:29.235Z,100.00
2018-12-25T07:03:57.601Z,100.00
2018-12-25T07:06:25.961Z,100.00
2018-12-25T07:08:54.339Z,100.00
2018-12-25T07:11:22.680Z,100.00
2018-12-25T07:13:51.033Z,100.00
2018-12-25T07:16:19.401Z,100.00
2018-12-25T07:18:47.756Z,100.00
2018-12-25T07:21:16.118Z,100.00
2018-12-25T07:23:44.884Z,100.00
2018-12-25T07:26:13.250Z,100.00
2018-12-25T07:28:41.604Z,100.00
2018-12-25T07:31:09.964Z,100.00
2018-12-25T07:33:39.331Z,100.00
2018-12-25T07:36:09.459Z,100.00
2018-12-25T07:38:37.804Z,100.00
2018-12-25T07:41:06.164Z,100.00
2018-12-25T07:43:34.519Z,100.00
2018-12-25T07:46:02.896Z,100.00
2018-12-25T07:48:31.257Z,100.00
2018-12-25T07:50:59.625Z,100.00
2018-12-25T07:53:27.979Z,100.00
2018-12-25T07:55:56.339Z,100.00
2018-12-25T07:58:24.713Z,100.00
2018-12-25T08:00:53.067Z,100.00
2018-12-25T08:03:21.424Z,100.00
2018-12-25T08:05:49.768Z,100.00
2018-12-25T08:08:18.131Z,100.00
2018-12-25T08:10:46.496Z,100.00
2018-12-25T08:13:14.875Z,100.00
2018-12-25T08:15:43.247Z,100.00
2018-12-25T08:18:11.598Z,100.00
2018-12-25T08:20:39.966Z,100.00
2018-12-25T08:23:08.329Z,100.00
2018-12-25T08:25:36.733Z,100.00
2018-12-25T08:28:05.089Z,100.00
2018-12-25T08:30:33.474Z,100.00
2018-12-25T08:33:01.862Z,100.00
2018-12-25T08:35:30.237Z,100.00
2018-12-25T08:37:58.590Z,100.00
2018-12-25T08:40:26.953Z,100.00
2018-12-25T08:42:55.328Z,100.00
2018-12-25T08:45:23.693Z,100.00
2018-12-25T08:47:52.065Z,100.00
2018-12-25T08:50:20.434Z,100.00
2018-12-25T08:52:48.792Z,100.00
2018-12-25T08:55:17.155Z,100.00
2018-12-25T08:57:45.523Z,100.00
2018-12-25T09:00:13.961Z,100.00
2018-12-25T09:02:42.694Z,100.00
2018-12-25T09:05:11.061Z,100.00
2018-12-25T09:07:39.417Z,100.00
2018-12-25T09:10:07.774Z,99.95
2018-12-25T09:12:36.138Z,99.42
2018-12-25T09:15:04.653Z,99.64
2018-12-25T09:17:33.000Z,99.71
2018-12-25T09:20:01.378Z,100.00
2018-12-25T09:22:29.737Z,99.78
2018-12-25T09:24:58.098Z,99.99
2018-12-25T09:27:26.458Z,99.88
2018-12-25T09:29:54.801Z,99.94
2018-12-25T09:32:23.179Z,100.00
2018-12-25T09:34:51.526Z,100.00
2018-12-25T09:37:19.890Z,100.00
2018-12-25T09:39:48.249Z,99.95
2018-12-25T09:42:16.711Z,99.59
2018-12-25T09:44:45.066Z,99.92
2018-12-25T09:47:13.429Z,99.34
2018-12-25T09:49:41.779Z,99.62
2018-12-25T09:52:10.134Z,99.64
2018-12-25T09:54:38.485Z,99.95
2018-12-25T09:57:06.844Z,99.81
2018-12-25T09:59:35.201Z,100.00
2018-12-25T10:02:03.557Z,100.00
2018-12-25T10:04:31.963Z,100.00
2018-12-25T10:07:00.325Z,100.00
2018-12-25T10:09:28.685Z,100.00
2018-12-25T10:11:57.057Z,100.00
2018-12-25T10:14:25.431Z,100.00
2018-12-25T10:16:53.777Z,100.00
2018-12-25T10:19:22.136Z,100.00
2018-12-25T10:21:50.517Z,100.00
2018-12-25T10:24:18.896Z,100.00
2018-12-25T10:26:47.245Z,100.00
2018-12-25T10:29:15.611Z,100.00
2018-12-25T10:31:43.967Z,100.00
2018-12-25T10:34:52.364Z,100.00
2018-12-25T10:37:20.721Z,100.00
2018-12-25T10:39:49.092Z,100.00
2018-12-25T10:42:17.443Z,98.98
2018-12-25T10:44:45.837Z,98.75
2018-12-25T10:47:14.255Z,98.49
2018-12-25T10:49:42.612Z,97.22
2018-12-25T10:52:11.817Z,95.97
2018-12-25T10:54:41.040Z,96.15
2018-12-25T10:57:09.405Z,96.04
2018-12-25T10:59:37.766Z,95.97
2018-12-25T11:02:06.118Z,95.81
2018-12-25T11:04:34.498Z,95.64
2018-12-25T11:07:02.846Z,94.92
2018-12-25T11:09:31.200Z,93.41
2018-12-25T11:11:59.566Z,94.22
2018-12-25T11:14:27.934Z,94.38
2018-12-25T11:16:56.312Z,94.90
2018-12-25T11:19:24.663Z,94.75
2018-12-25T11:21:53.049Z,94.45
2018-12-25T11:24:21.382Z,94.05
2018-12-25T11:26:49.744Z,93.39
2018-12-25T11:29:37.223Z,94.00
2018-12-25T11:32:05.587Z,93.13
2018-12-25T11:34:33.942Z,92.63
2018-12-25T11:37:02.306Z,92.75
2018-12-25T11:39:30.674Z,93.28
2018-12-25T11:41:59.035Z,92.32
2018-12-25T11:44:27.406Z,92.29
2018-12-25T11:46:55.746Z,92.63
2018-12-25T11:49:24.109Z,92.68
2018-12-25T11:51:52.458Z,92.76
2018-12-25T11:54:20.826Z,92.15
2018-12-25T11:56:49.174Z,92.42
2018-12-25T11:59:17.551Z,92.23
2018-12-25T12:01:45.896Z,91.50
2018-12-25T12:04:14.319Z,91.45
2018-12-25T12:06:42.665Z,91.36
2018-12-25T12:09:11.026Z,91.29
2018-12-25T12:11:39.392Z,90.98
2018-12-25T12:14:07.743Z,90.27
2018-12-25T12:16:36.111Z,89.62
2018-12-25T12:19:04.465Z,89.30
2018-12-25T12:21:32.856Z,88.80
2018-12-25T12:24:01.211Z,88.04
2018-12-25T12:26:29.584Z,87.82
2018-12-25T12:28:57.933Z,88.42
2018-12-25T12:31:26.302Z,87.88
2018-12-25T12:33:54.662Z,88.55
2018-12-25T12:36:23.011Z,88.03
2018-12-25T12:38:51.362Z,87.50
2018-12-25T12:41:19.714Z,87.92
2018-12-25T12:43:48.066Z,88.76
2018-12-25T12:46:16.439Z,88.14
2018-12-25T12:48:44.799Z,88.96
2018-12-25T12:51:13.170Z,89.36
2018-12-25T12:53:41.863Z,89.57
2018-12-25T12:56:10.240Z,90.37
2018-12-25T12:58:38.589Z,90.99
2018-12-25T13:01:06.949Z,90.63
2018-12-25T13:03:35.316Z,90.63
2018-12-25T13:06:03.673Z,90.21
2018-12-25T13:08:32.032Z,90.21
2018-12-25T13:11:00.397Z,90.63
2018-12-25T13:13:28.756Z,90.24
2018-12-25T13:15:57.117Z,91.07
2018-12-25T13:18:25.537Z,89.69
2018-12-25T13:20:53.888Z,89.66
2018-12-25T13:23:22.256Z,89.98
2018-12-25T13:25:50.625Z,89.90
2018-12-25T13:28:18.976Z,89.05
2018-12-25T13:30:47.340Z,88.74
2018-12-25T13:33:15.698Z,88.78
2018-12-25T13:35:44.072Z,88.49
2018-12-25T13:38:12.452Z,88.47
2018-12-25T13:40:40.797Z,88.49
2018-12-25T13:43:09.141Z,88.24
2018-12-25T13:45:37.504Z,88.64
2018-12-25T13:48:05.849Z,88.45
2018-12-25T13:50:34.289Z,89.38
2018-12-25T13:53:03.370Z,89.98
2018-12-25T13:55:32.732Z,90.40
2018-12-25T13:58:01.086Z,89.80
2018-12-25T14:00:29.446Z,90.01
2018-12-25T14:03:10.024Z,90.00
2018-12-25T14:05:38.397Z,90.21
2018-12-25T14:08:06.752Z,90.56
2018-12-25T14:10:35.105Z,90.42
2018-12-25T14:13:03.468Z,91.39
2018-12-25T14:15:31.857Z,91.08
2018-12-25T14:18:00.209Z,91.40
2018-12-25T14:20:28.582Z,91.73
2018-12-25T14:22:56.941Z,91.59
2018-12-25T14:25:25.316Z,92.30
2018-12-25T14:27:53.660Z,92.20
2018-12-25T14:30:22.009Z,92.21
2018-12-25T14:32:50.366Z,92.43
2018-12-25T14:35:18.721Z,92.60
2018-12-25T14:37:47.064Z,92.94
2018-12-25T14:40:15.419Z,93.31
2018-12-25T14:42:43.764Z,93.63
2018-12-25T14:45:12.123Z,93.80
2018-12-25T14:47:40.502Z,93.77
2018-12-25T14:50:48.916Z,93.91
2018-12-25T14:53:19.835Z,94.01
2018-12-25T14:55:47.363Z,93.92
2018-12-25T14:58:15.933Z,93.78
2018-12-25T15:00:44.276Z,93.86
2018-12-25T15:03:12.636Z,93.55
2018-12-25T15:05:40.987Z,93.68
2018-12-25T15:08:09.345Z,93.77
2018-12-25T15:10:37.713Z,93.64
2018-12-25T15:13:06.074Z,93.42
2018-12-25T15:15:34.433Z,93.85
2018-12-25T15:18:02.789Z,93.96
2018-12-25T15:20:31.134Z,93.37
2018-12-25T15:22:59.502Z,92.93
2018-12-25T15:25:27.849Z,92.87
2018-12-25T15:27:56.208Z,92.87
2018-12-25T15:30:24.561Z,92.96
2018-12-25T15:32:52.917Z,92.63
2018-12-25T15:35:21.282Z,93.48
2018-12-25T15:38:08.989Z,92.13
2018-12-25T15:40:37.344Z,92.13
2018-12-25T15:43:05.694Z,91.59
2018-12-25T15:45:34.055Z,91.49
2018-12-25T15:48:02.415Z,91.10
2018-12-25T15:50:30.773Z,91.45
2018-12-25T15:52:59.120Z,91.39
2018-12-25T15:55:27.513Z,91.12
2018-12-25T15:57:55.885Z,91.45
2018-12-25T16:00:24.269Z,90.62
2018-12-25T16:02:52.616Z,90.23
2018-12-25T16:05:20.971Z,90.18
2018-12-25T16:07:49.327Z,90.33
2018-12-25T16:10:17.777Z,90.57
2018-12-25T16:12:46.129Z,90.88
2018-12-25T16:15:14.481Z,90.97
2018-12-25T16:17:42.895Z,91.01
2018-12-25T16:20:11.250Z,91.48
2018-12-25T16:22:39.594Z,92.19
2018-12-25T16:25:07.941Z,92.16
2018-12-25T16:27:36.286Z,92.75
2018-12-25T16:30:44.668Z,92.76
2018-12-25T16:33:13.044Z,93.01
2018-12-25T16:35:41.386Z,93.39
2018-12-25T16:38:09.732Z,93.83
2018-12-25T16:40:38.093Z,93.76
2018-12-25T16:43:06.458Z,94.04
2018-12-25T16:45:34.823Z,94.13
2018-12-25T16:48:03.170Z,94.30
2018-12-25T16:50:31.531Z,94.35
2018-12-25T16:52:59.880Z,94.72
2018-12-25T16:55:28.235Z,95.61
2018-12-25T16:57:56.578Z,96.16
2018-12-25T17:00:24.946Z,96.39
2018-12-25T17:02:53.304Z,96.96
2018-12-25T17:05:21.655Z,97.19
2018-12-25T17:07:50.015Z,97.71
2018-12-25T17:10:18.384Z,98.20
2018-12-25T17:12:46.747Z,98.63
2018-12-25T17:15:15.096Z,98.80
2018-12-25T17:17:43.489Z,99.46
2018-12-25T17:20:11.857Z,99.85
2018-12-25T17:22:40.209Z,99.98
2018-12-25T17:25:08.572Z,99.93
2018-12-25T17:27:36.920Z,99.95
2018-12-25T17:30:45.310Z,99.90
2018-12-25T17:33:13.670Z,100.00
2018-12-25T17:35:42.695Z,99.72
2018-12-25T17:38:11.965Z,99.64
2018-12-25T17:40:41.559Z,99.50
2018-12-25T17:43:09.924Z,99.70
2018-12-25T17:45:38.277Z,99.42
2018-12-25T17:48:06.631Z,99.36
2018-12-25T17:50:34.981Z,99.24
2018-12-25T17:53:03.339Z,99.24
2018-12-25T17:55:31.685Z,99.20
2018-12-25T17:58:00.098Z,98.90
2018-12-25T18:00:28.467Z,98.54
2018-12-25T18:02:56.811Z,98.59
2018-12-25T18:05:25.179Z,98.44
2018-12-25T18:07:53.531Z,98.34
2018-12-25T18:10:21.900Z,98.09
2018-12-25T18:12:50.258Z,98.25
2018-12-25T18:15:18.621Z,98.09
2018-12-25T18:17:46.993Z,98.21
2018-12-25T18:20:15.345Z,98.41
2018-12-25T18:22:43.713Z,98.31
2018-12-25T18:25:12.063Z,98.27
2018-12-25T18:27:40.839Z,98.25
2018-12-25T18:30:10.519Z,98.40
2018-12-25T18:32:38.864Z,98.93
2018-12-25T18:35:07.230Z,98.95
2018-12-25T18:37:35.600Z,98.96
2018-12-25T18:40:44.080Z,99.08
2018-12-25T18:43:12.415Z,99.11
2018-12-25T18:45:41.047Z,99.58
2018-12-25T18:48:09.409Z,99.49
2018-12-25T18:50:37.775Z,99.56
2018-12-25T18:53:06.145Z,99.71
2018-12-25T18:55:34.503Z,99.78
2018-12-25T18:58:02.858Z,99.87
2018-12-25T19:00:31.209Z,99.83
2018-12-25T19:02:59.567Z,99.76
2018-12-25T19:05:27.920Z,99.61
2018-12-25T19:07:56.290Z,99.48
2018-12-25T19:10:24.634Z,99.36
2018-12-25T19:12:52.996Z,99.17
2018-12-25T19:16:01.382Z,99.34
2018-12-25T19:18:29.723Z,99.15
2018-12-25T19:20:58.086Z,98.86
2018-12-25T19:23:26.431Z,98.44
2018-12-25T19:26:14.141Z,98.58
2018-12-25T19:28:42.493Z,98.34
2018-12-25T19:31:10.851Z,98.40
2018-12-25T19:33:39.202Z,98.21
2018-12-25T19:36:07.568Z,98.42
2018-12-25T19:38:35.915Z,98.18
2018-12-25T19:41:04.264Z,98.05
2018-12-25T19:43:32.628Z,98.12
2018-12-25T19:46:34.184Z,97.79
2018-12-25T19:49:02.544Z,97.65
2018-12-25T19:51:30.898Z,97.70
2018-12-25T19:54:18.597Z,97.78
2018-12-25T19:56:46.948Z,97.71
2018-12-25T19:59:15.307Z,97.61
2018-12-25T20:01:43.655Z,97.61
2018-12-25T20:04:52.060Z,97.29
2018-12-25T20:07:54.542Z,97.39
2018-12-25T20:11:01.627Z,97.39
2018-12-25T20:14:10.105Z,97.28
2018-12-25T20:17:12.596Z,97.02
2018-12-25T20:20:14.415Z,96.94
2018-12-25T20:23:21.503Z,96.83
2018-12-25T20:26:28.575Z,96.59
2018-12-25T20:29:35.631Z,96.38
2018-12-25T20:32:42.716Z,96.48
2018-12-25T20:35:49.777Z,96.66
2018-12-25T20:38:56.856Z,96.49
2018-12-25T20:42:05.267Z,96.49
2018-12-25T20:45:12.315Z,96.44
2018-12-25T20:48:20.725Z,96.51
2018-12-25T20:51:27.783Z,96.06
2018-12-25T20:54:34.862Z,96.04
2018-12-25T20:57:36.605Z,96.15
2018-12-25T21:00:38.297Z,95.61
2018-12-25T21:03:45.362Z,95.63
2018-12-25T21:06:53.826Z,95.54
2018-12-25T21:10:00.892Z,95.23
2018-12-25T21:13:08.046Z,95.09
2018-12-25T21:16:15.113Z,95.10
2018-12-25T21:19:22.200Z,95.31
2018-12-25T21:22:24.703Z,95.40
2018-12-25T21:25:31.794Z,95.28
2018-12-25T21:27:59.107Z,95.28
2018-12-25T21:31:07.500Z,95.44
2018-12-25T21:33:35.864Z,95.23
2018-12-25T21:36:04.215Z,95.55
2018-12-25T21:38:32.575Z,95.62
2018-12-25T21:41:40.957Z,95.88
2018-12-25T21:44:09.330Z,95.87
2018-12-25T21:46:37.702Z,95.97
2018-12-25T21:49:06.117Z,95.90
2018-12-25T21:51:34.469Z,95.81
2018-12-25T21:54:02.823Z,95.80
2018-12-25T21:56:31.237Z,95.76
2018-12-25T21:58:59.596Z,96.09
2018-12-25T22:01:27.966Z,96.25
2018-12-25T22:03:56.325Z,96.25
2018-12-25T22:06:24.699Z,96.26
2018-12-25T22:08:53.056Z,96.36
2018-12-25T22:11:21.420Z,96.49
2018-12-25T22:13:49.800Z,96.81
2018-12-25T22:16:18.295Z,96.93
2018-12-25T22:18:46.582Z,97.23
2018-12-25T22:21:14.940Z,97.62
2018-12-25T22:23:43.472Z,97.83
2018-12-25T22:26:11.824Z,98.21
2018-12-25T22:28:40.182Z,98.71
2018-12-25T22:31:08.538Z,98.76
2018-12-25T22:33:36.900Z,99.02
2018-12-25T22:36:05.257Z,99.33
2018-12-25T22:38:33.623Z,99.70
2018-12-25T22:41:01.987Z,99.93
2018-12-25T22:43:30.340Z,100.00
2018-12-25T22:45:58.694Z,99.97
2018-12-25T22:48:27.045Z,99.90
2018-12-25T22:50:55.425Z,100.00
2018-12-25T22:53:23.775Z,99.94
2018-12-25T22:55:52.140Z,100.00
2018-12-25T22:58:20.494Z,100.00
2018-12-25T23:01:28.894Z,100.00
2018-12-25T23:03:57.247Z,100.00
2018-12-25T23:06:25.607Z,100.00
2018-12-25T23:08:53.976Z,100.00
2018-12-25T23:11:22.343Z,100.00
2018-12-25T23:13:50.715Z,100.00
2018-12-25T23:16:19.065Z,100.00
2018-12-25T23:18:47.446Z,100.00
2018-12-25T23:21:15.818Z,100.00
2018-12-25T23:23:44.192Z,100.00
2018-12-25T23:26:12.554Z,100.00
2018-12-25T23:28:40.925Z,100.00
2018-12-25T23:31:09.426Z,100.00
2018-12-25T23:33:39.376Z,100.00
2018-12-25T23:36:07.719Z,100.00
2018-12-25T23:38:36.072Z,100.00
2018-12-25T23:41:04.422Z,100.00
2018-12-25T23:43:32.787Z,100.00
2018-12-25T23:46:01.150Z,100.00
2018-12-25T23:48:29.518Z,100.00
2018-12-25T23:50:57.874Z,100.00
2018-12-25T23:53:26.237Z,100.00
2018-12-25T23:55:54.608Z,100.00
2018-12-25T23:58:22.979Z,100.00
